Аэропорт
Сыктывкар (UUYY)

 UUYY / SCW
ЗЦ Санкт-Петербург
Сыктывкар (UUYY)
Сыктывкар (UUYY)
 61.64700, 50.84510  / 342 ft

 UUYY 220730Z 19006MPS 9999 OVC009 00/M01 Q1016 R18/19//55 NOSIG RMK QFE753/1004
 TAF UUYY 220200Z 2203/2303 19003MPS 6000 BKN011 BKN016CB TEMPO 2203/2209 21005G10MPS 3100 -SHSN -FZRA FEW004 BKN011CB BECMG 2209/2210 20006G14MPS TEMPO 2209/2303 3100 -SHSN BKN011CB
показать схемы

Аэродром "Сыктывкар" (UUYY)

Рекомендованные сценарии:

FS2004 от Aniter

P3D/FSX от Aniter 

Схемы:

АИП

Средства связи ОВД:

UUYY_R_APP - Сивкар-Круг - 124.600

UUYY_TWR - Сивкар-Старт - 124.600

UUYY_ATIS - Сивкар-АТИС (русский, английский) - 126.600



2020 © VATRUS division (Privacy Policy)